Time,TemperatureF,DewpointF,PressureIn,WindDirection,WindDirectionDegrees,WindSpeedMPH,WindSpeedGustMPH,Humidity,HourlyPrecipIn,Conditions,Clouds,dailyrainin,SolarRadiationWatts/m^2,SoftwareType,DateUTC
2013-03-25 00:22:00,63.0,63.0,-100.00,NE,47,4.0,9.0,100,0.00,,,0.22,0.000000,,2013-03-25 10:22:00,
2013-03-25 00:32:00,63.0,63.0,-100.00,NE,47,4.0,9.0,100,0.00,,,0.22,0.000000,,2013-03-25 10:32:00,
2013-03-25 00:42:00,63.0,63.0,-100.00,NE,47,4.0,9.0,100,0.00,,,0.22,0.000000,,2013-03-25 10:42:00,
2013-03-25 00:52:00,63.0,63.0,-100.00,NE,47,4.0,9.0,100,0.00,,,0.22,0.000000,,2013-03-25 10:52:00,
2013-03-25 01:23:00,61.0,61.0,-100.00,SW,223,2.0,11.0,100,0.00,,,-99.99,0.000000,,2013-03-25 11:23:00,
2013-03-25 01:32:00,61.0,61.0,-100.00,SW,223,2.0,11.0,100,0.00,,,-99.99,0.000000,,2013-03-25 11:32:00,
2013-03-25 01:42:00,61.0,61.0,-100.00,SW,223,2.0,11.0,100,0.00,,,-99.99,0.000000,,2013-03-25 11:42:00,
2013-03-25 01:52:00,61.0,61.0,-100.00,SW,223,2.0,11.0,100,0.00,,,-99.99,0.000000,,2013-03-25 11:52:00,
2013-03-25 02:23:00,65.0,65.0,-100.00,ENE,67,5.0,11.0,100,0.00,,,0.21,0.000000,,2013-03-25 12:23:00,
2013-03-25 02:32:00,65.0,65.0,-100.00,ENE,67,5.0,11.0,100,0.00,,,0.21,0.000000,,2013-03-25 12:32:00,
2013-03-25 02:42:00,65.0,65.0,-100.00,ENE,67,5.0,11.0,100,0.00,,,0.21,0.000000,,2013-03-25 12:42:00,
2013-03-25 02:52:00,65.0,65.0,-100.00,ENE,67,5.0,11.0,100,0.00,,,0.21,0.000000,,2013-03-25 12:52:00,
2013-03-25 03:22:00,64.0,63.0,-100.00,ENE,60,5.0,14.0,97,0.00,,,0.21,0.000000,,2013-03-25 13:22:00,
2013-03-25 03:32:00,64.0,63.0,-100.00,ENE,60,5.0,14.0,97,0.00,,,0.21,0.000000,,2013-03-25 13:32:00,
2013-03-25 03:42:00,64.0,63.0,-100.00,ENE,60,5.0,14.0,97,0.00,,,0.21,0.000000,,2013-03-25 13:42:00,
2013-03-25 03:52:00,64.0,63.0,-100.00,ENE,60,5.0,14.0,97,0.00,,,0.21,0.000000,,2013-03-25 13:52:00,
2013-03-25 04:22:00,66.0,64.0,-100.00,ENE,73,5.0,11.0,94,0.00,,,0.21,0.000000,,2013-03-25 14:22:00,
2013-03-25 04:32:00,66.0,64.0,-100.00,ENE,73,5.0,11.0,94,0.00,,,0.21,0.000000,,2013-03-25 14:32:00,
2013-03-25 04:42:00,66.0,64.0,-100.00,ENE,73,5.0,11.0,94,0.00,,,0.21,0.000000,,2013-03-25 14:42:00,
2013-03-25 04:52:00,66.0,64.0,-100.00,ENE,73,5.0,11.0,94,0.00,,,0.21,0.000000,,2013-03-25 14:52:00,
2013-03-25 05:22:00,66.0,65.0,-100.00,ENE,78,6.0,14.0,97,0.00,,,0.21,0.000000,,2013-03-25 15:22:00,
2013-03-25 05:32:00,66.0,65.0,-100.00,ENE,78,6.0,14.0,97,0.00,,,0.21,0.000000,,2013-03-25 15:32:00,
2013-03-25 05:42:00,66.0,65.0,-100.00,ENE,78,6.0,14.0,97,0.00,,,0.21,0.000000,,2013-03-25 15:42:00,
2013-03-25 05:52:00,66.0,65.0,-100.00,ENE,78,6.0,14.0,97,0.00,,,0.21,0.000000,,2013-03-25 15:52:00,
2013-03-25 06:23:00,66.0,65.0,-100.00,NW,314,6.0,11.0,98,0.00,,,0.21,0.000000,,2013-03-25 16:23:00,
2013-03-25 06:32:00,66.0,65.0,-100.00,NW,314,6.0,11.0,98,0.00,,,0.21,0.000000,,2013-03-25 16:32:00,
2013-03-25 06:42:00,66.0,65.0,-100.00,NW,314,6.0,11.0,98,0.00,,,0.21,0.000000,,2013-03-25 16:42:00,
2013-03-25 06:52:00,66.0,65.0,-100.00,NW,314,6.0,11.0,98,0.00,,,0.21,0.000000,,2013-03-25 16:52:00,
2013-03-25 07:23:00,65.0,65.0,-100.00,ENE,63,6.0,12.0,99,0.00,,,0.21,6.000000,,2013-03-25 17:23:00,
2013-03-25 07:32:00,65.0,65.0,-100.00,ENE,63,6.0,12.0,99,0.00,,,0.21,6.000000,,2013-03-25 17:32:00,
2013-03-25 07:42:00,65.0,65.0,-100.00,ENE,63,6.0,12.0,99,0.00,,,0.21,6.000000,,2013-03-25 17:42:00,
2013-03-25 07:52:00,65.0,65.0,-100.00,ENE,63,6.0,12.0,99,0.00,,,0.21,6.000000,,2013-03-25 17:52:00,
2013-03-25 08:22:00,72.0,66.0,-100.00,SE,124,2.0,12.0,82,0.00,,,0.21,179.000000,,2013-03-25 18:22:00,
2013-03-25 08:32:00,72.0,66.0,-100.00,SE,124,2.0,12.0,82,0.00,,,0.21,179.000000,,2013-03-25 18:32:00,
2013-03-25 08:42:00,72.0,66.0,-100.00,SE,124,2.0,12.0,82,0.00,,,0.21,179.000000,,2013-03-25 18:42:00,
2013-03-25 08:51:00,72.0,66.0,-100.00,SE,124,2.0,12.0,82,0.00,,,0.21,179.000000,,2013-03-25 18:51:00,
2013-03-25 09:22:00,74.0,69.0,-100.00,East,96,2.0,11.0,84,0.00,,,0.21,279.000000,,2013-03-25 19:22:00,
2013-03-25 09:32:00,74.0,69.0,-100.00,East,96,2.0,11.0,84,0.00,,,0.21,279.000000,,2013-03-25 19:32:00,
2013-03-25 09:42:00,74.0,69.0,-100.00,East,96,2.0,11.0,84,0.00,,,0.21,279.000000,,2013-03-25 19:42:00,
2013-03-25 09:52:00,74.0,69.0,-100.00,East,96,2.0,11.0,84,0.00,,,0.21,279.000000,,2013-03-25 19:52:00,
2013-03-25 10:22:00,77.0,68.0,-100.00,ENE,65,2.0,12.0,75,0.00,,,0.17,514.000000,,2013-03-25 20:22:00,
2013-03-25 10:32:00,77.0,68.0,-100.00,ENE,65,2.0,12.0,75,0.00,,,0.17,514.000000,,2013-03-25 20:32:00,
2013-03-25 10:42:00,77.0,68.0,-100.00,ENE,65,2.0,12.0,75,0.00,,,0.17,514.000000,,2013-03-25 20:42:00,
2013-03-25 10:52:00,77.0,68.0,-100.00,ENE,65,2.0,12.0,75,0.00,,,0.17,514.000000,,2013-03-25 20:52:00,
2013-03-25 11:22:00,78.0,69.0,-100.00,NE,51,5.0,14.0,75,0.00,,,0.12,644.000000,,2013-03-25 21:22:00,
2013-03-25 11:33:00,78.0,69.0,-100.00,NE,51,5.0,14.0,75,0.00,,,0.12,644.000000,,2013-03-25 21:33:00,
2013-03-25 11:42:00,78.0,69.0,-100.00,NE,51,5.0,14.0,75,0.00,,,0.12,644.000000,,2013-03-25 21:42:00,
2013-03-25 11:52:00,78.0,69.0,-100.00,NE,51,5.0,14.0,75,0.00,,,0.12,644.000000,,2013-03-25 21:52:00,
2013-03-25 12:23:00,77.0,68.0,-100.00,ENE,77,7.0,15.0,73,0.00,,,0.10,763.000000,,2013-03-25 22:23:00,
2013-03-25 12:32:00,77.0,68.0,-100.00,ENE,77,7.0,15.0,73,0.00,,,0.10,763.000000,,2013-03-25 22:32:00,
2013-03-25 12:42:00,77.0,68.0,-100.00,ENE,77,7.0,15.0,73,0.00,,,0.10,763.000000,,2013-03-25 22:42:00,
2013-03-25 12:52:00,77.0,68.0,-100.00,ENE,77,7.0,15.0,73,0.00,,,0.10,763.000000,,2013-03-25 22:52:00,
2013-03-25 13:22:00,74.0,68.0,-100.00,ESE,122,3.0,11.0,82,0.00,,,0.05,669.000000,,2013-03-25 23:22:00,
2013-03-25 13:32:00,74.0,68.0,-100.00,ESE,122,3.0,11.0,82,0.00,,,0.05,669.000000,,2013-03-25 23:32:00,
2013-03-25 13:42:00,74.0,68.0,-100.00,ESE,122,3.0,11.0,82,0.00,,,0.05,669.000000,,2013-03-25 23:42:00,
2013-03-25 13:52:00,74.0,68.0,-100.00,ESE,122,3.0,11.0,82,0.00,,,0.05,669.000000,,2013-03-25 23:52:00,
2013-03-25 14:22:00,71.0,69.0,-100.00,ENE,60,7.0,11.0,94,0.10,,,0.14,328.000000,,2013-03-26 00:22:00,
2013-03-25 14:32:00,71.0,69.0,-100.00,ENE,60,7.0,11.0,94,0.10,,,0.14,328.000000,,2013-03-26 00:32:00,
2013-03-25 14:42:00,71.0,69.0,-100.00,ENE,60,7.0,11.0,94,0.10,,,0.14,328.000000,,2013-03-26 00:42:00,
2013-03-25 14:52:00,71.0,69.0,-100.00,ENE,60,7.0,11.0,94,0.10,,,0.14,328.000000,,2013-03-26 00:52:00,
2013-03-25 15:22:00,72.0,70.0,-100.00,East,81,6.0,13.0,92,0.00,,,0.12,229.000000,,2013-03-26 01:22:00,
2013-03-25 15:32:00,72.0,70.0,-100.00,East,81,6.0,13.0,92,0.00,,,0.12,229.000000,,2013-03-26 01:32:00,
2013-03-25 15:42:00,72.0,70.0,-100.00,East,81,6.0,13.0,92,0.00,,,0.12,229.000000,,2013-03-26 01:42:00,
2013-03-25 15:52:00,72.0,70.0,-100.00,East,81,6.0,13.0,92,0.00,,,0.12,229.000000,,2013-03-26 01:52:00,
2013-03-25 16:22:00,69.0,68.0,-100.00,ESE,123,4.0,13.0,98,0.02,,,0.13,169.000000,,2013-03-26 02:22:00,
2013-03-25 16:32:00,69.0,68.0,-100.00,ESE,123,4.0,13.0,98,0.02,,,0.13,169.000000,,2013-03-26 02:32:00,
2013-03-25 16:42:00,69.0,68.0,-100.00,ESE,123,4.0,13.0,98,0.02,,,0.13,169.000000,,2013-03-26 02:42:00,
2013-03-25 16:52:00,69.0,68.0,-100.00,ESE,123,4.0,13.0,98,0.02,,,0.13,169.000000,,2013-03-26 02:52:00,
2013-03-25 17:22:00,70.0,67.0,-100.00,ENE,74,7.0,14.0,90,0.00,,,0.12,301.000000,,2013-03-26 03:22:00,
2013-03-25 17:33:00,70.0,67.0,-100.00,ENE,74,7.0,14.0,90,0.00,,,0.12,301.000000,,2013-03-26 03:33:00,
2013-03-25 17:42:00,70.0,67.0,-100.00,ENE,74,7.0,14.0,90,0.00,,,0.12,301.000000,,2013-03-26 03:42:00,
2013-03-25 17:52:00,70.0,67.0,-100.00,ENE,74,7.0,14.0,90,0.00,,,0.12,301.000000,,2013-03-26 03:52:00,
2013-03-25 18:23:00,68.0,65.0,-100.00,ENE,69,4.0,12.0,91,0.00,,,0.12,96.000000,,2013-03-26 04:23:00,
2013-03-25 18:32:00,68.0,65.0,-100.00,ENE,69,4.0,12.0,91,0.00,,,0.12,96.000000,,2013-03-26 04:32:00,
2013-03-25 18:43:00,68.0,65.0,-100.00,ENE,69,4.0,12.0,91,0.00,,,0.12,96.000000,,2013-03-26 04:43:00,
2013-03-25 18:52:00,68.0,65.0,-100.00,ENE,69,4.0,12.0,91,0.00,,,0.12,96.000000,,2013-03-26 04:52:00,
2013-03-25 19:22:00,68.0,67.0,-100.00,NNE,27,2.0,11.0,96,0.00,,,0.12,15.000000,,2013-03-26 05:22:00,
2013-03-25 19:32:00,68.0,67.0,-100.00,NNE,27,2.0,11.0,96,0.00,,,0.12,15.000000,,2013-03-26 05:32:00,
2013-03-25 19:42:00,68.0,67.0,-100.00,NNE,27,2.0,11.0,96,0.00,,,0.12,15.000000,,2013-03-26 05:42:00,
2013-03-25 19:52:00,68.0,67.0,-100.00,NNE,27,2.0,11.0,96,0.00,,,0.12,15.000000,,2013-03-26 05:52:00,
2013-03-25 20:22:00,66.0,65.0,-100.00,NE,43,2.0,9.0,98,0.00,,,0.12,0.000000,,2013-03-26 06:22:00,
2013-03-25 20:32:00,66.0,65.0,-100.00,NE,43,2.0,9.0,98,0.00,,,0.12,0.000000,,2013-03-26 06:32:00,
2013-03-25 20:42:00,66.0,65.0,-100.00,NE,43,2.0,9.0,98,0.00,,,0.12,0.000000,,2013-03-26 06:42:00,
2013-03-25 20:52:00,66.0,65.0,-100.00,NE,43,2.0,9.0,98,0.00,,,0.12,0.000000,,2013-03-26 06:52:00,
2013-03-25 21:22:00,67.0,66.0,-100.00,North,349,4.0,10.0,97,0.00,,,0.12,0.000000,,2013-03-26 07:22:00,
2013-03-25 21:32:00,67.0,66.0,-100.00,North,349,4.0,10.0,97,0.00,,,0.12,0.000000,,2013-03-26 07:32:00,
2013-03-25 21:42:00,67.0,66.0,-100.00,North,349,4.0,10.0,97,0.00,,,0.12,0.000000,,2013-03-26 07:42:00,
2013-03-25 21:52:00,67.0,66.0,-100.00,North,349,4.0,10.0,97,0.00,,,0.12,0.000000,,2013-03-26 07:52:00,
2013-03-25 22:22:00,67.0,66.0,-100.00,ENE,70,6.0,11.0,96,0.00,,,0.12,0.000000,,2013-03-26 08:22:00,
2013-03-25 22:32:00,67.0,66.0,-100.00,ENE,70,6.0,11.0,96,0.00,,,0.12,0.000000,,2013-03-26 08:32:00,
2013-03-25 22:42:00,67.0,66.0,-100.00,ENE,70,6.0,11.0,96,0.00,,,0.12,0.000000,,2013-03-26 08:42:00,
2013-03-25 22:52:00,67.0,66.0,-100.00,ENE,70,6.0,11.0,96,0.00,,,0.12,0.000000,,2013-03-26 08:52:00,
2013-03-25 23:22:00,65.0,65.0,-100.00,ESE,106,3.0,13.0,99,0.00,,,0.12,0.000000,,2013-03-26 09:22:00,
2013-03-25 23:32:00,65.0,65.0,-100.00,ESE,106,3.0,13.0,99,0.00,,,0.12,0.000000,,2013-03-26 09:32:00,
2013-03-25 23:42:00,65.0,65.0,-100.00,ESE,106,3.0,13.0,99,0.00,,,0.12,0.000000,,2013-03-26 09:42:00,
2013-03-25 23:52:00,65.0,65.0,-100.00,ESE,106,3.0,13.0,99,0.00,,,0.12,0.000000,,2013-03-26 09:52:00,